Time;durP1;ratioP1;P1;durP2;ratioP2;P2;SDS_P1;SDS_P2;PMS_P1;PMS_P2;Temp;Humidity;BMP_temperature;BMP_pressure;BME280_temperature;BME280_humidity;BME280_pressure;Samples;Min_cycle;Max_cycle;Signal;HPM_P1;HPM_P2
2021/01/25 00:00:46;;;;;;;2.10;1.70;;;;;;;1.93;59.90;96969.53;5040400;28;20354;-63
2021/01/25 00:03:12;;;;;;;2.83;1.77;;;;;;;1.96;59.56;96968.66;5042892;28;20052;-64
2021/01/25 00:05:37;;;;;;;2.17;1.70;;;;;;;1.98;59.52;96965.28;5053945;28;20040;-64
2021/01/25 00:08:04;;;;;;;2.90;2.23;;;;;;;1.95;60.14;96972.06;5060711;28;20276;-64
2021/01/25 00:10:29;;;;;;;6.53;2.10;;;;;;;1.95;60.08;96975.44;5053460;28;20101;-63
2021/01/25 00:12:55;;;;;;;3.83;1.80;;;;;;;1.93;59.86;96969.53;5052359;28;20072;-63
2021/01/25 00:15:20;;;;;;;1.87;1.77;;;;;;;1.92;59.79;96962.81;5052752;28;20091;-63
2021/01/25 00:17:45;;;;;;;1.70;1.60;;;;;;;1.90;59.58;96971.28;5052746;28;20037;-64
2021/01/25 00:20:11;;;;;;;1.97;1.47;;;;;;;1.93;59.45;96968.69;5052868;28;20044;-65
2021/01/25 00:22:37;;;;;;;4.17;2.13;;;;;;;1.97;60.02;96965.28;5053056;28;20063;-65
2021/01/25 00:25:03;;;;;;;2.33;2.13;;;;;;;1.99;60.14;96961.91;5052964;28;20065;-64
2021/01/25 00:27:29;;;;;;;3.00;1.70;;;;;;;1.88;60.33;96955.28;5052684;28;20033;-65
2021/01/25 00:29:54;;;;;;;1.73;1.60;;;;;;;1.86;60.36;96967.97;5052844;28;20039;-65
2021/01/25 00:32:19;;;;;;;3.30;2.10;;;;;;;1.89;60.34;96962.84;5052270;28;20369;-65
2021/01/25 00:34:45;;;;;;;2.10;1.70;;;;;;;1.83;60.66;96965.44;5053382;28;20033;-65
2021/01/25 00:37:10;;;;;;;4.23;2.13;;;;;;;1.83;59.98;96961.22;5052085;28;20039;-65
2021/01/25 00:39:36;;;;;;;2.97;2.03;;;;;;;1.74;60.69;96978.19;5053320;28;20029;-65
2021/01/25 00:42:01;;;;;;;2.77;1.93;;;;;;;1.76;60.77;96974.78;5054319;28;20064;-65
2021/01/25 00:44:27;;;;;;;2.73;1.90;;;;;;;1.75;60.95;96979.84;5057446;28;20048;-64
2021/01/25 00:46:52;;;;;;;2.57;1.83;;;;;;;1.74;59.88;96986.59;5038231;28;20025;-64
2021/01/25 00:49:17;;;;;;;3.40;2.03;;;;;;;1.83;60.43;96981.44;5038949;28;20353;-64
2021/01/25 00:51:43;;;;;;;2.93;1.70;;;;;;;1.83;60.19;96991.53;5055245;28;20116;-64
2021/01/25 00:54:08;;;;;;;2.57;2.00;;;;;;;1.88;60.04;96988.97;5076959;28;20471;-65
2021/01/25 00:56:34;;;;;;;2.87;1.97;;;;;;;1.82;59.99;96989.88;5075429;28;20033;-66
2021/01/25 00:58:59;;;;;;;5.43;2.43;;;;;;;1.84;60.15;96998.28;5057061;28;20036;-65
2021/01/25 01:01:24;;;;;;;2.60;2.00;;;;;;;1.88;60.38;97001.59;5055548;28;20040;-65
2021/01/25 01:03:50;;;;;;;2.53;2.13;;;;;;;1.82;60.23;96997.44;5056073;28;20114;-66
2021/01/25 01:06:15;;;;;;;3.60;2.60;;;;;;;1.86;60.14;97002.47;5055871;28;20041;-65
2021/01/25 01:08:40;;;;;;;3.40;2.10;;;;;;;1.77;60.33;97016.06;5055723;28;20044;-64
2021/01/25 01:11:06;;;;;;;3.10;1.90;;;;;;;1.88;60.01;97004.13;5056532;28;20115;-66
2021/01/25 01:13:31;;;;;;;2.73;1.77;;;;;;;1.90;59.66;96989.81;5055479;28;20358;-65
2021/01/25 01:15:57;;;;;;;2.47;2.27;;;;;;;1.97;59.79;96985.50;5056088;28;20041;-65
2021/01/25 01:18:22;;;;;;;3.23;1.80;;;;;;;1.91;59.24;96993.16;5053892;28;20455;-65
2021/01/25 01:20:47;;;;;;;1.93;1.63;;;;;;;2.01;59.69;96979.56;5055425;28;20035;-66
2021/01/25 01:23:13;;;;;;;2.03;1.73;;;;;;;1.97;59.20;96982.97;5054793;28;20489;-65
2021/01/25 01:25:38;;;;;;;1.97;1.77;;;;;;;2.00;59.01;96993.03;5055097;28;20040;-65
2021/01/25 01:28:04;;;;;;;2.63;1.70;;;;;;;2.02;59.20;96987.13;5055434;28;20458;-65
2021/01/25 01:30:29;;;;;;;2.40;1.87;;;;;;;1.99;59.63;96982.13;5050927;28;20029;-66
2021/01/25 01:32:55;;;;;;;1.90;1.37;;;;;;;2.03;59.35;96972.81;5055465;28;20173;-65
2021/01/25 01:35:20;;;;;;;2.87;1.30;;;;;;;2.04;58.72;96970.25;5046331;28;20040;-64
2021/01/25 01:37:45;;;;;;;1.70;1.27;;;;;;;2.01;58.80;96970.28;5038775;28;20408;-64
2021/01/25 01:40:12;;;;;;;2.47;1.70;;;;;;;2.03;58.47;96972.81;5054857;28;20041;-64
2021/01/25 01:42:38;;;;;;;1.40;1.30;;;;;;;2.02;58.63;96966.91;5054426;28;20325;-64
2021/01/25 01:45:06;;;;;;;1.67;1.57;;;;;;;2.07;58.60;96964.31;5056010;28;20049;-64
2021/01/25 01:47:33;;;;;;;4.47;2.07;;;;;;;2.06;58.88;96960.97;5053839;28;20044;-64
2021/01/25 01:49:59;;;;;;;1.53;1.43;;;;;;;2.01;58.96;96967.75;5055998;28;20048;-64
2021/01/25 01:52:24;;;;;;;1.70;1.57;;;;;;;1.92;59.34;96967.88;5053917;28;20107;-64
2021/01/25 01:54:50;;;;;;;1.87;1.30;;;;;;;1.88;59.00;96978.88;5055196;28;20110;-64
2021/01/25 01:57:16;;;;;;;1.67;1.57;;;;;;;1.83;59.83;96973.03;5054580;28;20038;-65
2021/01/25 01:59:42;;;;;;;2.47;1.53;;;;;;;1.74;60.03;96961.31;5054679;28;20414;-65
2021/01/25 02:02:08;;;;;;;2.10;1.77;;;;;;;1.69;60.42;96967.31;5055419;28;20037;-65
2021/01/25 02:04:34;;;;;;;2.17;1.83;;;;;;;1.79;59.87;96968.84;5054160;28;20365;-65
2021/01/25 02:07:04;;;;;;;1.80;1.70;;;;;;;1.77;60.41;96968.91;5055276;28;20045;-65
2021/01/25 02:09:33;;;;;;;3.43;2.10;;;;;;;1.71;60.82;96984.09;5053865;28;20076;-65
2021/01/25 02:11:59;;;;;;;6.80;2.40;;;;;;;1.64;61.83;96967.34;5054879;28;20090;-66
2021/01/25 02:14:25;;;;;;;6.43;2.20;;;;;;;1.59;61.73;96960.66;5053991;28;20040;-66
2021/01/25 02:16:51;;;;;;;3.53;2.20;;;;;;;1.52;61.91;96962.44;5054896;28;20032;-66
2021/01/25 02:19:48;;;;;;;2.03;1.50;;;;;;;1.62;61.87;96968.22;5036256;28;20043;-65
2021/01/25 02:22:46;;;;;;;2.00;1.80;;;;;;;1.61;61.74;96989.28;5054615;28;20041;-65
2021/01/25 02:25:37;;;;;;;5.17;2.13;;;;;;;1.56;62.07;96974.19;5010279;28;20106;-65
2021/01/25 02:28:04;;;;;;;2.63;2.10;;;;;;;1.54;62.59;96973.34;5054278;28;20041;-65
2021/01/25 02:30:29;;;;;;;3.77;2.50;;;;;;;1.46;62.53;96977.63;5035940;28;20369;-65
2021/01/25 02:32:56;;;;;;;2.60;1.80;;;;;;;1.49;62.39;96967.50;5033422;28;20057;-64
2021/01/25 02:35:22;;;;;;;3.23;1.60;;;;;;;1.46;62.57;96969.22;5042108;28;20136;-65
2021/01/25 02:37:55;;;;;;;3.27;2.07;;;;;;;1.48;62.76;96965.84;5053848;28;20036;-65
2021/01/25 02:40:22;;;;;;;3.43;2.33;;;;;;;1.49;62.71;96961.59;5052927;28;20037;-65
2021/01/25 02:42:51;;;;;;;2.27;1.70;;;;;;;1.54;62.54;96975.03;5044874;28;20068;-66
2021/01/25 02:45:17;;;;;;;2.47;2.23;;;;;;;1.48;62.52;96973.44;5033617;28;20030;-66
2021/01/25 02:47:44;;;;;;;3.47;2.40;;;;;;;1.47;62.82;96970.91;5034296;28;20040;-66
2021/01/25 02:50:10;;;;;;;8.53;3.00;;;;;;;1.44;63.14;96971.78;5038730;28;20555;-65
2021/01/25 02:52:35;;;;;;;2.23;1.80;;;;;;;1.41;62.28;96976.84;5054719;28;20071;-66
2021/01/25 02:55:01;;;;;;;3.50;2.67;;;;;;;1.41;62.92;96981.03;5053091;28;20033;-65
2021/01/25 02:57:27;;;;;;;1.73;1.63;;;;;;;1.45;62.39;96975.97;5054932;28;20030;-66
2021/01/25 02:59:52;;;;;;;4.10;2.40;;;;;;;1.49;62.22;96980.13;5052830;28;20127;-65
2021/01/25 03:02:18;;;;;;;2.53;2.10;;;;;;;1.45;62.93;96968.38;5053939;28;20037;-65
2021/01/25 03:04:44;;;;;;;4.57;2.57;;;;;;;1.41;63.07;96981.88;5052763;28;20037;-65
2021/01/25 03:07:09;;;;;;;2.30;2.10;;;;;;;1.37;62.67;96982.78;5053335;28;20393;-65
2021/01/25 03:09:35;;;;;;;3.20;2.30;;;;;;;1.37;63.14;96980.25;5053537;28;20040;-65
2021/01/25 03:12:02;;;;;;;2.37;1.90;;;;;;;1.36;63.44;96986.97;5051222;28;20041;-65
2021/01/25 03:14:28;;;;;;;3.37;2.10;;;;;;;1.31;63.77;96987.91;5034823;28;20041;-65
2021/01/25 03:16:53;;;;;;;2.90;2.07;;;;;;;1.31;63.80;96990.41;5044182;28;20154;-65
2021/01/25 03:19:19;;;;;;;3.03;2.20;;;;;;;1.29;63.51;96990.41;5053931;28;20047;-65
2021/01/25 03:21:54;;;;;;;2.80;2.33;;;;;;;1.28;64.06;96986.22;5053033;28;20033;-65
2021/01/25 03:24:20;;;;;;;;;;;;;;;1.32;64.27;96989.53;5054349;28;20037;-65
2021/01/25 03:26:45;;;;;;;4.07;2.53;;;;;;;1.21;63.95;96984.59;5052642;28;20340;-65
2021/01/25 03:29:12;;;;;;;3.13;2.57;;;;;;;1.29;63.18;96987.91;5053686;28;20063;-65
2021/01/25 03:31:38;;;;;;;3.17;2.17;;;;;;;1.37;63.66;96987.81;5052533;28;20055;-65
2021/01/25 03:34:05;;;;;;;3.00;2.27;;;;;;;1.31;63.93;96987.91;5053748;28;20039;-65
2021/01/25 03:36:31;;;;;;;3.33;2.10;;;;;;;1.34;63.42;97000.47;5052755;28;20353;-65
2021/01/25 03:38:57;;;;;;;3.67;2.27;;;;;;;1.46;62.70;96989.41;5053855;28;20047;-65
2021/01/25 03:41:23;;;;;;;3.10;2.57;;;;;;;1.49;62.95;96999.47;5049398;28;20041;-65
2021/01/25 03:43:49;;;;;;;3.83;2.80;;;;;;;1.54;62.24;96996.06;5034064;28;20044;-65
2021/01/25 03:46:14;;;;;;;5.37;2.30;;;;;;;1.56;62.53;96991.00;5015596;28;20515;-65
2021/01/25 03:48:39;;;;;;;2.83;2.20;;;;;;;1.58;62.44;97009.50;5054639;28;20032;-65
2021/01/25 03:51:05;;;;;;;2.60;2.40;;;;;;;1.65;61.89;96994.28;5052582;28;20516;-65
2021/01/25 03:53:32;;;;;;;2.00;1.70;;;;;;;1.69;62.24;97015.28;5034566;28;20041;-65
2021/01/25 03:55:58;;;;;;;3.03;2.23;;;;;;;1.67;62.20;97012.78;5032933;28;20041;-65
2021/01/25 03:58:23;;;;;;;2.13;1.93;;;;;;;1.70;61.96;97004.31;5050197;28;20032;-65
2021/01/25 04:00:49;;;;;;;3.77;2.00;;;;;;;1.76;60.99;96995.00;5052904;28;20039;-65
2021/01/25 04:03:14;;;;;;;2.73;2.03;;;;;;;1.78;61.08;97010.16;5052901;28;20032;-66
2021/01/25 04:05:39;;;;;;;3.43;1.83;;;;;;;1.78;61.12;97007.63;5052994;28;20106;-66
2021/01/25 04:08:05;;;;;;;2.27;2.03;;;;;;;1.78;61.01;96997.53;5042905;28;20029;-66
2021/01/25 04:10:30;;;;;;;3.27;2.03;;;;;;;1.77;60.97;97016.91;5035451;28;20373;-65
2021/01/25 04:12:56;;;;;;;2.90;2.07;;;;;;;1.79;60.82;97012.66;5053643;28;20373;-65
2021/01/25 04:15:21;;;;;;;3.73;2.20;;;;;;;1.81;61.08;97022.75;5053367;28;20094;-65
2021/01/25 04:17:46;;;;;;;4.63;2.33;;;;;;;1.84;61.37;97021.00;5057851;28;20044;-66
2021/01/25 04:20:12;;;;;;;2.77;2.30;;;;;;;1.92;60.96;97020.09;5056401;28;20356;-66
2021/01/25 04:22:37;;;;;;;3.70;2.07;;;;;;;1.84;60.65;97023.53;5055439;28;20035;-66
2021/01/25 04:25:07;;;;;;;4.60;2.57;;;;;;;1.88;60.57;97026.03;5056005;28;20224;-65
2021/01/25 04:27:33;;;;;;;2.70;1.80;;;;;;;1.87;60.03;97025.19;5050568;28;20144;-65
2021/01/25 04:29:59;;;;;;;3.00;2.30;;;;;;;1.93;59.73;97032.72;5036615;28;20103;-65
2021/01/25 04:32:25;;;;;;;4.57;2.57;;;;;;;1.95;60.25;97032.72;5040592;28;20049;-66
2021/01/25 04:34:53;;;;;;;4.70;2.73;;;;;;;1.96;60.01;97032.66;5057160;28;20029;-66
2021/01/25 04:37:19;;;;;;;4.20;2.37;;;;;;;2.03;59.65;97043.56;5055580;28;20102;-65
2021/01/25 04:39:45;;;;;;;3.37;2.30;;;;;;;1.93;59.57;97040.28;5057095;28;20044;-65
2021/01/25 04:42:10;;;;;;;4.03;2.17;;;;;;;2.01;59.24;97043.56;5053269;28;20124;-65
2021/01/25 04:44:39;;;;;;;3.17;2.20;;;;;;;2.07;59.14;97040.16;5057637;28;20044;-65
2021/01/25 04:47:05;;;;;;;3.13;1.90;;;;;;;2.04;59.13;97047.75;5056734;28;20043;-65
2021/01/25 04:49:31;;;;;;;2.93;2.20;;;;;;;2.07;59.37;97048.56;5056363;28;20952;-65
2021/01/25 04:51:57;;;;;;;3.27;2.00;;;;;;;2.08;58.94;97051.94;5055731;28;20108;-66
2021/01/25 04:54:23;;;;;;;5.53;2.30;;;;;;;2.02;59.21;97046.94;5054928;28;20033;-65
2021/01/25 04:56:50;;;;;;;2.40;1.83;;;;;;;2.06;59.15;97056.16;5055958;28;20499;-65
2021/01/25 04:59:16;;;;;;;2.77;2.30;;;;;;;2.05;59.61;97051.94;5055960;28;20053;-63
2021/01/25 05:01:42;;;;;;;1.97;1.67;;;;;;;2.04;59.49;97061.22;5056874;28;20060;-65
2021/01/25 05:04:07;;;;;;;4.57;2.37;;;;;;;2.08;59.44;97062.03;5068842;28;20047;-66
2021/01/25 05:06:34;;;;;;;2.87;2.00;;;;;;;2.02;59.66;97057.03;5075998;28;20101;-66
2021/01/25 05:08:59;;;;;;;3.47;2.47;;;;;;;2.03;59.34;97058.72;5062697;28;20071;-65
2021/01/25 05:11:25;;;;;;;1.93;1.83;;;;;;;2.06;59.37;97068.78;5055330;28;20109;-65
2021/01/25 05:14:01;;;;;;;2.23;2.03;;;;;;;2.05;60.26;97067.13;5047651;28;20040;-66
2021/01/25 05:16:30;;;;;;;5.23;2.33;;;;;;;2.04;60.36;97071.31;5056122;28;20045;-66
2021/01/25 05:18:58;;;;;;;3.37;2.47;;;;;;;2.01;60.43;97070.53;5037283;28;20028;-66
2021/01/25 05:21:51;;;;;;;3.03;1.83;;;;;;;2.06;60.37;97071.31;5055956;28;20037;-66
2021/01/25 05:24:16;;;;;;;9.77;2.90;;;;;;;1.95;59.88;97073.13;5051288;28;20048;-65
2021/01/25 05:27:01;;;;;;;3.60;2.50;;;;;;;2.12;59.70;97074.59;5056164;28;20036;-65
2021/01/25 05:29:28;;;;;;;4.67;2.40;;;;;;;2.07;60.18;97075.53;5045929;28;20029;-65
2021/01/25 05:31:54;;;;;;;4.33;2.57;;;;;;;2.01;60.13;97078.09;5054543;28;20053;-65
2021/01/25 05:34:20;;;;;;;4.43;2.23;;;;;;;1.94;60.55;97077.34;5044247;28;20116;-65
2021/01/25 05:36:46;;;;;;;4.10;1.90;;;;;;;1.94;60.35;97073.97;5043171;28;20120;-65
2021/01/25 05:39:17;;;;;;;2.87;2.30;;;;;;;1.97;61.05;97073.94;5036265;28;20448;-65
2021/01/25 05:41:55;;;;;;;4.53;2.40;;;;;;;2.02;60.44;97073.06;5054561;28;20037;-66
2021/01/25 05:44:21;;;;;;;2.67;1.90;;;;;;;1.98;60.73;97068.03;5043947;28;20358;-65
2021/01/25 05:46:46;;;;;;;3.30;2.20;;;;;;;1.89;60.95;97065.59;5045328;28;20043;-65
2021/01/25 05:49:12;;;;;;;6.07;3.43;;;;;;;1.81;61.88;97066.53;5054504;28;20457;-65
2021/01/25 05:51:39;;;;;;;5.60;2.57;;;;;;;1.81;61.77;97061.47;5055163;28;20048;-65
2021/01/25 05:54:05;;;;;;;2.83;2.23;;;;;;;1.80;61.50;97064.00;5054216;28;20033;-65
2021/01/25 05:56:30;;;;;;;3.93;2.30;;;;;;;1.77;61.69;97072.47;5055473;28;20369;-65
2021/01/25 05:58:56;;;;;;;3.27;2.30;;;;;;;1.74;62.05;97069.13;5054118;28;20424;-65
2021/01/25 06:01:23;;;;;;;4.50;2.47;;;;;;;1.67;61.99;97065.81;5044049;28;20041;-65
2021/01/25 06:03:49;;;;;;;3.10;2.50;;;;;;;1.69;62.40;97076.75;5043905;28;20493;-65
2021/01/25 06:06:33;;;;;;;5.13;2.83;;;;;;;1.73;62.25;97080.94;5053661;28;20036;-65
2021/01/25 06:09:16;;;;;;;4.43;2.83;;;;;;;1.71;62.43;97091.88;5054857;28;20465;-65
2021/01/25 06:11:45;;;;;;;6.87;3.07;;;;;;;1.64;62.69;97096.16;5053311;28;20604;-66
2021/01/25 06:14:23;;;;;;;4.53;3.33;;;;;;;1.70;62.89;97101.13;5054238;28;20044;-65
2021/01/25 06:16:50;;;;;;;7.77;4.30;;;;;;;1.64;62.41;97106.25;5054130;28;20045;-66
2021/01/25 06:19:20;;;;;;;5.10;2.97;;;;;;;1.56;63.19;97105.50;5055330;28;20415;-66
2021/01/25 06:21:47;;;;;;;3.37;2.60;;;;;;;1.64;62.56;97100.38;5053622;28;20032;-65
2021/01/25 06:24:14;;;;;;;5.13;3.00;;;;;;;1.65;62.70;97107.94;5054739;28;20115;-65
2021/01/25 06:26:41;;;;;;;3.57;2.37;;;;;;;1.68;62.46;97117.16;5052942;28;20102;-65
2021/01/25 06:29:08;;;;;;;4.90;1.93;;;;;;;1.66;62.64;97111.28;5053698;28;20042;-67
2021/01/25 06:31:38;;;;;;;3.30;2.67;;;;;;;1.70;62.38;97118.81;5053665;28;20422;-66
2021/01/25 06:34:05;;;;;;;7.13;3.77;;;;;;;1.69;62.75;97117.16;5054911;28;20067;-65
2021/01/25 06:36:33;;;;;;;5.67;4.07;;;;;;;1.65;63.05;97120.56;5047962;28;20043;-65
2021/01/25 06:39:00;;;;;;;6.20;3.03;;;;;;;1.60;62.84;97118.94;5051877;28;20460;-65
2021/01/25 06:41:37;;;;;;;3.93;2.83;;;;;;;1.77;62.96;97122.16;5052955;28;20458;-65
2021/01/25 06:44:03;;;;;;;3.43;2.63;;;;;;;1.65;63.05;97119.72;5054571;28;20377;-66
2021/01/25 06:46:32;;;;;;;3.80;3.33;;;;;;;1.65;63.11;97125.63;5053016;28;20128;-65
2021/01/25 06:48:59;;;;;;;4.37;2.70;;;;;;;1.67;62.71;97120.53;5053851;28;20412;-66
2021/01/25 06:51:24;;;;;;;3.63;2.80;;;;;;;1.63;63.16;97126.47;5052935;28;20106;-67
2021/01/25 06:53:52;;;;;;;5.77;3.47;;;;;;;1.64;62.80;97125.63;5054457;28;20037;-67
2021/01/25 06:56:17;;;;;;;4.03;2.50;;;;;;;1.63;62.86;97132.34;5052194;28;20117;-66
2021/01/25 06:58:47;;;;;;;3.17;2.57;;;;;;;1.83;62.39;97133.03;5015848;28;20041;-67
2021/01/25 07:01:18;;;;;;;3.13;2.63;;;;;;;1.76;62.43;97128.88;5033995;28;20033;-67
2021/01/25 07:03:49;;;;;;;3.03;2.30;;;;;;;1.84;61.52;97132.19;5053878;28;20167;-67
2021/01/25 07:06:15;;;;;;;2.60;2.40;;;;;;;1.78;61.68;97131.41;5053512;28;20052;-66
2021/01/25 07:08:52;;;;;;;3.40;2.07;;;;;;;1.86;61.51;97134.69;5053732;28;20372;-65
2021/01/25 07:11:18;;;;;;;4.83;2.73;;;;;;;1.69;61.49;97144.13;5053532;28;20660;-66
2021/01/25 07:13:44;;;;;;;3.20;2.20;;;;;;;1.78;61.70;97144.84;5052177;28;20033;-65
2021/01/25 07:16:09;;;;;;;3.73;2.80;;;;;;;1.82;60.87;97138.91;5053077;28;20036;-65
2021/01/25 07:18:35;;;;;;;3.10;2.33;;;;;;;1.95;61.14;97141.38;5063493;28;20036;-65
2021/01/25 07:21:02;;;;;;;3.80;2.53;;;;;;;1.90;60.54;97146.47;5073569;28;20350;-65
2021/01/25 07:23:28;;;;;;;4.50;2.30;;;;;;;1.97;60.76;97142.16;5062495;28;20037;-65
2021/01/25 07:25:58;;;;;;;5.00;2.17;;;;;;;2.06;60.64;97147.16;5053422;28;20449;-65
2021/01/25 07:28:26;;;;;;;3.03;2.33;;;;;;;2.11;60.36;97138.66;5052601;28;20499;-65
2021/01/25 07:30:51;;;;;;;2.13;1.77;;;;;;;2.14;60.05;97147.91;5053450;28;20041;-64
2021/01/25 07:33:18;;;;;;;2.70;2.13;;;;;;;2.21;59.80;97140.25;5051935;28;20515;-65
2021/01/25 07:35:44;;;;;;;3.33;2.40;;;;;;;2.28;60.94;97136.81;5053481;28;20148;-65
2021/01/25 07:38:10;;;;;;;5.20;2.97;;;;;;;2.29;59.29;97146.03;5051980;28;20045;-66
2021/01/25 07:40:35;;;;;;;3.03;2.57;;;;;;;2.19;59.29;97141.97;5053632;28;20109;-65
2021/01/25 07:43:03;;;;;;;2.90;2.60;;;;;;;2.33;59.08;97151.09;5051979;28;20029;-65
2021/01/25 07:45:29;;;;;;;2.33;2.00;;;;;;;2.15;59.30;97147.06;5023334;28;20343;-65
2021/01/25 07:47:54;;;;;;;4.77;2.50;;;;;;;2.04;59.83;97148.84;5032417;28;20041;-66
2021/01/25 07:50:20;;;;;;;3.73;2.60;;;;;;;2.10;60.07;97144.56;5035602;28;20029;-64
2021/01/25 07:52:56;;;;;;;4.20;2.53;;;;;;;2.10;59.74;97151.31;5035878;28;20051;-66
2021/01/25 07:55:21;;;;;;;7.43;3.40;;;;;;;2.02;60.34;97143.81;5045892;28;20351;-65
2021/01/25 07:57:46;;;;;;;5.80;3.53;;;;;;;1.93;60.57;97148.94;5058569;28;20039;-66
2021/01/25 08:00:18;;;;;;;10.70;5.00;;;;;;;2.02;59.85;97142.97;5063980;28;20037;-66
2021/01/25 08:03:08;;;;;;;19.23;8.90;;;;;;;2.04;60.63;97151.34;5059567;28;20033;-66
2021/01/25 08:05:34;;;;;;;12.73;5.93;;;;;;;1.98;60.63;97146.38;5059738;28;20055;-66
2021/01/25 08:08:03;;;;;;;6.30;4.20;;;;;;;2.05;60.74;97146.31;5042292;28;20043;-66
2021/01/25 08:10:31;;;;;;;5.33;3.57;;;;;;;2.15;60.32;97150.44;5044926;28;20040;-65
2021/01/25 08:13:00;;;;;;;5.37;2.87;;;;;;;2.22;59.70;97144.44;5052274;28;20360;-66
2021/01/25 08:15:30;;;;;;;5.63;2.87;;;;;;;2.21;59.72;97149.50;5047746;28;20032;-66
2021/01/25 08:17:59;;;;;;;5.30;2.70;;;;;;;2.17;59.30;97153.75;5040535;28;20033;-65
2021/01/25 08:20:31;;;;;;;6.23;2.20;;;;;;;2.49;58.97;97145.00;5044835;28;20108;-65
2021/01/25 08:23:06;;;;;;;4.50;2.33;;;;;;;2.63;58.21;97143.16;5041659;28;20033;-66
2021/01/25 08:25:32;;;;;;;3.38;2.35;;;;;;;2.84;57.35;97147.97;5039373;28;20124;-66
2021/01/25 08:28:00;;;;;;;3.00;1.53;;;;;;;3.15;56.42;97143.31;5047465;28;20426;-67
2021/01/25 08:30:31;;;;;;;2.63;2.30;;;;;;;3.29;55.41;97146.50;5044525;28;20053;-66
2021/01/25 08:33:01;;;;;;;2.60;1.97;;;;;;;3.32;55.18;97135.47;5035979;28;20037;-67
2021/01/25 08:35:28;;;;;;;3.67;1.80;;;;;;;3.46;55.65;97144.56;5027712;28;20022;-66
2021/01/25 08:38:05;;;;;;;2.30;2.10;;;;;;;3.39;54.83;97147.22;5044039;28;20029;-67
2021/01/25 08:40:35;;;;;;;1.83;1.50;;;;;;;3.21;54.44;97148.31;5040816;28;20116;-67
2021/01/25 08:43:01;;;;;;;2.17;1.97;;;;;;;3.19;54.41;97155.91;5041789;28;20036;-66
2021/01/25 08:45:30;;;;;;;2.63;1.60;;;;;;;3.26;54.43;97148.25;5048911;28;20033;-67
2021/01/25 08:48:06;;;;;;;5.67;2.50;;;;;;;3.16;53.64;97155.13;5044205;28;20040;-68
2021/01/25 08:50:32;;;;;;;3.20;1.60;;;;;;;3.01;53.91;97150.28;5050053;28;20102;-68
2021/01/25 08:53:02;;;;;;;1.57;1.40;;;;;;;2.98;52.38;97150.31;5048898;28;20052;-68
2021/01/25 08:55:36;;;;;;;2.83;1.20;;;;;;;2.98;51.95;97153.69;5052196;28;20044;-67
2021/01/25 08:58:14;;;;;;;1.67;1.23;;;;;;;2.86;51.63;97155.53;5047761;28;20116;-68
2021/01/25 09:00:42;;;;;;;2.03;1.37;;;;;;;2.93;51.85;97157.16;5046444;28;20052;-67
2021/01/25 09:03:11;;;;;;;1.30;1.20;;;;;;;3.06;51.96;97159.47;5045434;28;20043;-67
2021/01/25 09:05:36;;;;;;;1.63;1.10;;;;;;;3.36;50.89;97157.38;5053434;28;20024;-67
2021/01/25 09:08:02;;;;;;;2.90;1.40;;;;;;;3.72;50.33;97159.38;5035223;28;20049;-67
2021/01/25 09:10:27;;;;;;;1.47;1.30;;;;;;;3.66;49.28;97159.47;5047831;28;20044;-67
2021/01/25 09:12:53;;;;;;;1.23;1.00;;;;;;;3.69;49.98;97154.38;5064573;28;20029;-68
2021/01/25 09:15:19;;;;;;;2.50;1.20;;;;;;;3.84;49.09;97161.72;5059440;28;20112;-67
2021/01/25 09:17:44;;;;;;;2.37;1.10;;;;;;;3.64;49.61;97164.56;5066188;28;20364;-68
2021/01/25 09:20:11;;;;;;;1.17;1.03;;;;;;;3.74;50.10;97167.78;5062114;28;20096;-68
2021/01/25 09:22:37;;;;;;;1.33;1.20;;;;;;;3.97;49.90;97169.94;5063152;28;20124;-68
2021/01/25 09:25:04;;;;;;;2.53;1.10;;;;;;;4.12;49.72;97167.16;5063235;28;20099;-68
2021/01/25 09:27:30;;;;;;;1.27;1.17;;;;;;;4.26;50.03;97174.53;5058203;28;20353;-69
2021/01/25 09:29:55;;;;;;;1.20;1.10;;;;;;;4.23;49.02;97179.66;5060493;28;20039;-68
2021/01/25 09:32:21;;;;;;;1.57;1.47;;;;;;;4.17;49.20;97183.13;5056529;28;20045;-67
2021/01/25 09:34:48;;;;;;;1.53;1.20;;;;;;;4.04;49.33;97184.19;5055443;28;20135;-67
2021/01/25 09:37:14;;;;;;;1.77;1.47;;;;;;;4.09;49.38;97182.41;5035189;28;20111;-67
2021/01/25 09:39:39;;;;;;;2.77;1.20;;;;;;;4.17;49.26;97183.13;5055395;28;20025;-67
2021/01/25 09:42:06;;;;;;;1.03;0.93;;;;;;;4.31;49.49;97172.75;5055145;28;20048;-65
2021/01/25 09:44:34;;;;;;;1.53;1.43;;;;;;;4.51;49.11;97165.59;5055322;28;20047;-68
2021/01/25 09:47:00;;;;;;;1.40;1.30;;;;;;;4.23;48.39;97172.88;5021040;28;20036;-66
2021/01/25 09:49:26;;;;;;;1.43;1.27;;;;;;;4.37;49.04;97172.66;5038107;28;20041;-65
2021/01/25 09:51:51;;;;;;;1.67;1.53;;;;;;;4.43;49.29;97173.34;5055534;28;20055;-66
2021/01/25 09:54:17;;;;;;;1.53;1.00;;;;;;;4.44;48.29;97172.50;5053748;28;20040;-67
2021/01/25 09:56:43;;;;;;;0.83;0.83;;;;;;;4.41;48.67;97175.06;5054865;28;20039;-67
2021/01/25 09:59:08;;;;;;;1.70;1.20;;;;;;;4.47;48.56;97177.50;5037413;28;20025;-67
2021/01/25 10:01:34;;;;;;;1.53;1.40;;;;;;;4.62;48.88;97175.56;5036513;28;20357;-67
2021/01/25 10:03:59;;;;;;;1.23;1.13;;;;;;;4.54;48.06;97173.97;5049435;28;20040;-67
2021/01/25 10:06:27;;;;;;;1.83;1.13;;;;;;;4.57;48.42;97178.19;5054140;28;20155;-68
2021/01/25 10:08:53;;;;;;;2.43;2.00;;;;;;;4.76;48.30;97166.81;5039099;28;20042;-67
2021/01/25 10:11:19;;;;;;;1.23;1.13;;;;;;;4.75;47.92;97165.16;5053257;28;20032;-67
2021/01/25 10:13:44;;;;;;;1.67;1.57;;;;;;;4.73;48.17;97163.50;5048597;28;20048;-70
2021/01/25 10:16:10;;;;;;;1.47;1.20;;;;;;;4.67;46.98;97173.78;5036083;28;20040;-67
2021/01/25 10:18:35;;;;;;;2.90;1.50;;;;;;;4.57;47.96;97173.13;5053580;28;20043;-67
2021/01/25 10:21:00;;;;;;;1.40;1.30;;;;;;;4.58;47.45;97168.00;5037110;28;20380;-66
2021/01/25 10:23:26;;;;;;;1.10;1.07;;;;;;;4.75;47.01;97164.31;5036392;28;20116;-67
2021/01/25 10:25:51;;;;;;;2.80;1.63;;;;;;;4.84;47.36;97166.63;5054717;28;20032;-67
2021/01/25 10:28:18;;;;;;;1.37;1.27;;;;;;;4.89;47.32;97162.31;5054699;28;20040;-67
2021/01/25 10:30:44;;;;;;;1.70;1.60;;;;;;;4.80;47.00;97160.78;5054245;28;20116;-67
2021/01/25 10:33:10;;;;;;;2.40;2.00;;;;;;;4.78;47.76;97164.25;5074234;28;20114;-67
2021/01/25 10:35:42;;;;;;;2.40;1.20;;;;;;;4.95;47.92;97160.50;5056577;28;20343;-67
2021/01/25 10:38:08;;;;;;;3.20;1.90;;;;;;;5.29;46.84;97154.72;5039396;28;20029;-67
2021/01/25 10:40:33;;;;;;;3.70;1.43;;;;;;;5.44;46.64;97159.44;5045165;28;20022;-67
2021/01/25 10:42:58;;;;;;;10.27;1.80;;;;;;;5.28;45.60;97170.81;5047836;28;20036;-67
2021/01/25 10:45:24;;;;;;;2.27;1.13;;;;;;;5.15;45.11;97157.53;5049940;28;20022;-66
2021/01/25 10:47:50;;;;;;;2.63;2.43;;;;;;;5.44;45.29;97167.06;5042109;28;20370;-67
2021/01/25 10:50:16;;;;;;;2.43;2.03;;;;;;;5.79;44.82;97163.72;5041976;28;20028;-68
2021/01/25 10:52:43;;;;;;;2.10;1.63;;;;;;;5.79;43.85;97168.81;5046572;28;20071;-68
2021/01/25 10:55:09;;;;;;;5.00;1.60;;;;;;;5.61;44.87;97166.69;5040316;28;20032;-67
2021/01/25 10:57:34;;;;;;;2.77;1.40;;;;;;;5.83;44.97;97162.78;5038091;28;20454;-67
2021/01/25 11:00:20;;;;;;;1.90;1.80;;;;;;;5.43;44.34;97156.06;5043319;28;20021;-67
2021/01/25 11:02:47;;;;;;;2.90;1.53;;;;;;;5.50;43.98;97157.59;5045502;28;20432;-67
2021/01/25 11:05:15;;;;;;;4.50;1.20;;;;;;;5.28;43.74;97151.31;5043849;28;20025;-67
2021/01/25 11:07:40;;;;;;;5.00;2.30;;;;;;;5.34;44.68;97158.00;5044609;28;20030;-68
2021/01/25 11:10:09;;;;;;;1.53;1.10;;;;;;;5.15;45.48;97154.16;5042866;28;20041;-67
2021/01/25 11:12:35;;;;;;;2.27;1.73;;;;;;;5.23;45.36;97155.66;5046202;28;20033;-68
2021/01/25 11:15:00;;;;;;;1.37;1.27;;;;;;;4.99;44.89;97158.72;5048093;28;20040;-67
2021/01/25 11:17:26;;;;;;;1.60;1.50;;;;;;;5.12;45.13;97152.53;5044923;28;20037;-67
2021/01/25 11:19:52;;;;;;;1.20;1.10;;;;;;;4.96;45.04;97159.66;5043012;28;20449;-67
2021/01/25 11:22:17;;;;;;;1.60;1.17;;;;;;;4.92;43.85;97163.09;5049599;28;20100;-67
2021/01/25 11:24:43;;;;;;;3.00;1.47;;;;;;;5.10;44.24;97161.03;5046197;28;20055;-66
2021/01/25 11:27:08;;;;;;;1.50;1.40;;;;;;;5.15;44.20;97160.06;5042705;28;20025;-65
2021/01/25 11:29:34;;;;;;;1.47;1.07;;;;;;;4.89;44.20;97159.78;5046840;28;20297;-65
2021/01/25 11:32:05;;;;;;;1.13;0.93;;;;;;;5.15;43.22;97157.53;5047645;28;20108;-66
2021/01/25 11:34:30;;;;;;;1.07;1.03;;;;;;;5.25;42.67;97159.03;5047741;28;20045;-67
2021/01/25 11:36:56;;;;;;;2.27;1.60;;;;;;;5.39;43.56;97159.53;5046487;28;20029;-67
2021/01/25 11:39:29;;;;;;;2.33;1.20;;;;;;;5.66;43.03;97160.63;5043992;28;20021;-68
2021/01/25 11:41:54;;;;;;;2.60;1.27;;;;;;;5.90;41.47;97164.31;5045560;28;20033;-66